Adams City, Colorado
Current Conditions -  °F | °C
As of 5:53 PM on Monday 20 Oct 2014 (Local Time) from KDEN Reporting Station
Few Clouds Few Clouds  
Wind Chill: 19°   Ceiling: Unl
Heat Index: 19°   Visibility: 10mi
Dew Point:   Wind: 16mph
Humidity: 30%   Direction: 170°S
Pressure: 30.06"   Gusts: NA
Location:  39.8641°N, 104.821°W
Report Text: KDEN 202353Z 17014KT 10SM FEW090 FEW120 19/01 A3006 RMK AO2 PK WND 17026/2316 SLP130 VIRGA W T01940011 10250 20194 56002
Loading
Personal Weather Stations






























Interactive Weather Map
Tropical Storm Tracking
New forecast layout! Learn more

10-Day Weather Forecast

Advertisements
Track Severe Weather on mobile